メインページ
METAR-TAF:

METAR-TAF

空港 :

大分空港

大分, 日本

緯度: 33-29N, 経度: 131-44E, 海抜: 5m

現時点の気象観測

当レポートは1時間10分前の11:00(UTC)に作成
西の風 3kt
気温 19°C
湿度 73%
気圧 1011 hPa
視程10km以上
高度6000ftの雲はほとんどない
高度11000ftの雲は散在している
高度15000ftの千切れ雲あり

METAR: RJFO 161100Z 27003KT 9999 FEW060 SCT110 BKN150 19/14 Q1011

時間: 21:10 (12:10 UTC)

予報

当レポートは1時間1分前の11:09(UTC)に作成
予報は16日の 12時(UTC)から 17日の 18時(UTC)まで有効
西/北西の風 5kt
視程10km以上
高度3000ftの雲はほとんどない
17日の 00時(UTC)から 17日の 03時(UTC)まで徐々に
北/北東の風 10kt
17日の 09時(UTC)から 17日の 12時(UTC)まで徐々に
西/北西の風 5kt

TAF: RJFO 161109Z 1612/1718 30005KT 9999 FEW030 BECMG 1700/1703 02010KT BECMG 1709/1712 29005KT

4,000以上の空港の気象観測と天気予報(METAR報とTAF報)

利用可能な観測所は地図上に黄色い丸と赤い丸で示す。

丸の上にカーソルを重ねると観測所名を参照できる。

次にクリックすると気象観測と天気予報を参照できる。

マップの切り替え:黒色「×」印の緑ボタンをクリックして拡大、「-」印の緑ボタンをクリックして縮小、緑色の三角印をクリックして隣りの地図に切り替え


METAR-TAF: